sensor_id;sensor_type;location;lat;lon;timestamp;pressure;altitude;pressure_sealevel;temperature;humidity
47154;BME280;32907;41.412;2.164;2023-01-30T00:01:57;101629.22;;;16.63;29.37
47154;BME280;32907;41.412;2.164;2023-01-30T00:04:25;101615.81;;;16.56;29.80
47154;BME280;32907;41.412;2.164;2023-01-30T00:06:53;101563.09;;;16.18;29.91
47154;BME280;32907;41.412;2.164;2023-01-30T00:09:21;101542.66;;;16.11;30.33
47154;BME280;32907;41.412;2.164;2023-01-30T00:11:49;101595.25;;;16.43;30.17
47154;BME280;32907;41.412;2.164;2023-01-30T00:14:18;101598.78;;;16.44;30.13
47154;BME280;32907;41.412;2.164;2023-01-30T00:16:46;101582.59;;;16.32;29.68
47154;BME280;32907;41.412;2.164;2023-01-30T00:19:14;101577.44;;;16.31;29.22
47154;BME280;32907;41.412;2.164;2023-01-30T00:21:44;101493.50;;;15.74;29.54
47154;BME280;32907;41.412;2.164;2023-01-30T00:24:12;101543.53;;;16.00;29.77
47154;BME280;32907;41.412;2.164;2023-01-30T00:26:40;101545.66;;;15.98;30.00
47154;BME280;32907;41.412;2.164;2023-01-30T00:29:09;101575.34;;;16.21;29.67
47154;BME280;32907;41.412;2.164;2023-01-30T00:31:37;101505.94;;;15.75;29.90
47154;BME280;32907;41.412;2.164;2023-01-30T00:34:06;101558.81;;;16.06;29.92
47154;BME280;32907;41.412;2.164;2023-01-30T00:36:34;101582.16;;;16.12;29.88
47154;BME280;32907;41.412;2.164;2023-01-30T00:39:02;101525.22;;;15.78;29.92
47154;BME280;32907;41.412;2.164;2023-01-30T00:41:29;101557.41;;;15.91;29.91
47154;BME280;32907;41.412;2.164;2023-01-30T00:44:17;101585.50;;;16.14;30.40
47154;BME280;32907;41.412;2.164;2023-01-30T00:47:04;101579.47;;;16.12;30.08
47154;BME280;32907;41.412;2.164;2023-01-30T00:49:32;101580.53;;;16.11;30.31
47154;BME280;32907;41.412;2.164;2023-01-30T00:52:00;101579.97;;;16.09;29.89
47154;BME280;32907;41.412;2.164;2023-01-30T00:54:28;101572.09;;;15.95;29.99
47154;BME280;32907;41.412;2.164;2023-01-30T00:56:58;101575.50;;;16.03;29.78
47154;BME280;32907;41.412;2.164;2023-01-30T00:59:26;101523.84;;;15.64;29.94
47154;BME280;32907;41.412;2.164;2023-01-30T01:01:54;101226.47;;;13.73;30.05
47154;BME280;32907;41.412;2.164;2023-01-30T01:04:22;101546.06;;;15.66;30.02
47154;BME280;32907;41.412;2.164;2023-01-30T01:06:51;101590.69;;;15.92;30.14
47154;BME280;32907;41.412;2.164;2023-01-30T01:09:19;101562.38;;;15.83;29.99
47154;BME280;32907;41.412;2.164;2023-01-30T01:11:48;101581.53;;;15.93;29.94
47154;BME280;32907;41.412;2.164;2023-01-30T01:14:15;101552.25;;;15.78;30.15
47154;BME280;32907;41.412;2.164;2023-01-30T01:16:44;101592.69;;;15.97;30.16
47154;BME280;32907;41.412;2.164;2023-01-30T01:19:12;101514.56;;;15.48;29.84
47154;BME280;32907;41.412;2.164;2023-01-30T01:21:40;101579.88;;;15.92;29.94
47154;BME280;32907;41.412;2.164;2023-01-30T01:24:11;101575.53;;;15.79;30.19
47154;BME280;32907;41.412;2.164;2023-01-30T01:26:40;101561.91;;;15.74;29.90
47154;BME280;32907;41.412;2.164;2023-01-30T01:29:12;101481.66;;;15.16;30.25
47154;BME280;32907;41.412;2.164;2023-01-30T01:31:42;101587.53;;;15.83;30.12
47154;BME280;32907;41.412;2.164;2023-01-30T01:34:11;101447.13;;;14.95;29.95
47154;BME280;32907;41.412;2.164;2023-01-30T01:36:39;101524.28;;;15.37;29.89
47154;BME280;32907;41.412;2.164;2023-01-30T01:39:22;101575.44;;;15.74;30.11
47154;BME280;32907;41.412;2.164;2023-01-30T01:41:50;101570.47;;;15.59;30.41
47154;BME280;32907;41.412;2.164;2023-01-30T01:44:18;101575.81;;;15.66;29.93
47154;BME280;32907;41.412;2.164;2023-01-30T01:51:56;101548.84;;;15.59;29.98
47154;BME280;32907;41.412;2.164;2023-01-30T01:57:00;101588.84;;;15.69;29.99
47154;BME280;32907;41.412;2.164;2023-01-30T01:59:34;101583.44;;;15.69;30.49
47154;BME280;32907;41.412;2.164;2023-01-30T02:02:07;101584.16;;;15.64;30.22
47154;BME280;32907;41.412;2.164;2023-01-30T02:04:37;101549.31;;;15.45;30.12
47154;BME280;32907;41.412;2.164;2023-01-30T02:07:26;101541.00;;;15.34;29.83
47154;BME280;32907;41.412;2.164;2023-01-30T02:09:56;101502.34;;;15.10;29.97
47154;BME280;32907;41.412;2.164;2023-01-30T02:12:25;101494.47;;;15.09;30.06
47154;BME280;32907;41.412;2.164;2023-01-30T02:14:55;101570.47;;;15.59;29.96
47154;BME280;32907;41.412;2.164;2023-01-30T02:17:24;101534.28;;;15.37;30.25
47154;BME280;32907;41.412;2.164;2023-01-30T02:20:47;101554.50;;;15.58;30.22
47154;BME280;32907;41.412;2.164;2023-01-30T02:28:22;101550.13;;;15.45;30.83
47154;BME280;32907;41.412;2.164;2023-01-30T02:31:20;101539.34;;;15.33;30.62
47154;BME280;32907;41.412;2.164;2023-01-30T02:36:44;101529.34;;;15.22;30.67
47154;BME280;32907;41.412;2.164;2023-01-30T02:42:27;101556.84;;;15.43;30.71
47154;BME280;32907;41.412;2.164;2023-01-30T02:45:11;101550.38;;;15.44;30.81
47154;BME280;32907;41.412;2.164;2023-01-30T02:47:56;101449.72;;;14.78;30.79
47154;BME280;32907;41.412;2.164;2023-01-30T02:50:28;101562.59;;;15.46;30.80
47154;BME280;32907;41.412;2.164;2023-01-30T02:52:58;101483.19;;;15.00;30.95
47154;BME280;32907;41.412;2.164;2023-01-30T02:55:27;101566.00;;;15.53;30.90
47154;BME280;32907;41.412;2.164;2023-01-30T02:57:56;101542.97;;;15.39;30.71
47154;BME280;32907;41.412;2.164;2023-01-30T03:09:27;101504.66;;;15.07;31.15
47154;BME280;32907;41.412;2.164;2023-01-30T03:14:45;101436.44;;;14.76;30.84
47154;BME280;32907;41.412;2.164;2023-01-30T03:17:17;101522.06;;;15.23;30.87
47154;BME280;32907;41.412;2.164;2023-01-30T03:19:47;101469.78;;;14.94;30.75
47154;BME280;32907;41.412;2.164;2023-01-30T03:22:16;101476.03;;;14.94;30.63
47154;BME280;32907;41.412;2.164;2023-01-30T03:24:44;101437.38;;;14.70;30.81
47154;BME280;32907;41.412;2.164;2023-01-30T03:27:12;101470.47;;;14.89;30.75
47154;BME280;32907;41.412;2.164;2023-01-30T03:29:40;101495.41;;;15.03;30.86
47154;BME280;32907;41.412;2.164;2023-01-30T03:32:08;101427.84;;;14.56;31.12
47154;BME280;32907;41.412;2.164;2023-01-30T03:34:36;101499.25;;;15.07;30.85
47154;BME280;32907;41.412;2.164;2023-01-30T03:37:04;101465.53;;;14.74;31.15
47154;BME280;32907;41.412;2.164;2023-01-30T03:39:34;101384.50;;;14.39;30.79
47154;BME280;32907;41.412;2.164;2023-01-30T03:42:05;101513.47;;;15.14;30.90
47154;BME280;32907;41.412;2.164;2023-01-30T03:44:33;101510.88;;;15.07;30.91
47154;BME280;32907;41.412;2.164;2023-01-30T03:47:00;101500.22;;;15.01;30.71
47154;BME280;32907;41.412;2.164;2023-01-30T03:49:29;101432.56;;;14.61;31.05
47154;BME280;32907;41.412;2.164;2023-01-30T03:51:58;101518.53;;;15.22;30.56
47154;BME280;32907;41.412;2.164;2023-01-30T03:54:26;101527.69;;;15.21;30.82
47154;BME280;32907;41.412;2.164;2023-01-30T03:56:54;101503.03;;;15.06;30.70
47154;BME280;32907;41.412;2.164;2023-01-30T03:59:23;101507.97;;;15.09;30.66
47154;BME280;32907;41.412;2.164;2023-01-30T04:01:59;101528.63;;;15.15;31.02
47154;BME280;32907;41.412;2.164;2023-01-30T04:04:28;101507.03;;;15.03;31.09
47154;BME280;32907;41.412;2.164;2023-01-30T04:06:58;101516.53;;;15.06;31.14
47154;BME280;32907;41.412;2.164;2023-01-30T04:09:26;101453.91;;;14.74;30.86
47154;BME280;32907;41.412;2.164;2023-01-30T04:11:56;101524.19;;;15.21;31.10
47154;BME280;32907;41.412;2.164;2023-01-30T04:14:31;101502.69;;;15.02;30.88
47154;BME280;32907;41.412;2.164;2023-01-30T04:17:25;101458.97;;;14.70;31.09
47154;BME280;32907;41.412;2.164;2023-01-30T04:20:22;101441.81;;;14.65;31.21
47154;BME280;32907;41.412;2.164;2023-01-30T04:22:54;101482.69;;;14.92;30.86
47154;BME280;32907;41.412;2.164;2023-01-30T04:25:24;101487.28;;;14.91;30.84
47154;BME280;32907;41.412;2.164;2023-01-30T04:27:52;101522.31;;;15.09;31.00
47154;BME280;32907;41.412;2.164;2023-01-30T04:30:24;101531.81;;;15.24;30.66
47154;BME280;32907;41.412;2.164;2023-01-30T04:33:02;101515.59;;;15.12;30.73
47154;BME280;32907;41.412;2.164;2023-01-30T04:35:30;101527.81;;;15.26;30.93
47154;BME280;32907;41.412;2.164;2023-01-30T04:37:58;101500.44;;;15.11;30.77
47154;BME280;32907;41.412;2.164;2023-01-30T04:40:27;101532.75;;;15.29;30.60
47154;BME280;32907;41.412;2.164;2023-01-30T04:42:56;101533.34;;;15.31;30.79
47154;BME280;32907;41.412;2.164;2023-01-30T04:45:29;101465.81;;;14.85;30.86
47154;BME280;32907;41.412;2.164;2023-01-30T04:47:57;101524.28;;;15.14;30.69
47154;BME280;32907;41.412;2.164;2023-01-30T04:50:25;101512.41;;;15.15;30.59
47154;BME280;32907;41.412;2.164;2023-01-30T04:52:53;101476.94;;;14.88;30.72
47154;BME280;32907;41.412;2.164;2023-01-30T04:55:21;101522.19;;;15.16;30.94
47154;BME280;32907;41.412;2.164;2023-01-30T04:57:49;101533.94;;;15.33;31.04
47154;BME280;32907;41.412;2.164;2023-01-30T05:00:17;101468.97;;;14.93;31.01
47154;BME280;32907;41.412;2.164;2023-01-30T05:02:52;101452.41;;;14.90;31.18
47154;BME280;32907;41.412;2.164;2023-01-30T05:05:23;101536.75;;;15.38;30.96
47154;BME280;32907;41.412;2.164;2023-01-30T05:07:51;101541.69;;;15.42;30.64
47154;BME280;32907;41.412;2.164;2023-01-30T05:10:20;101522.31;;;15.33;30.31
47154;BME280;32907;41.412;2.164;2023-01-30T05:12:48;101501.75;;;15.20;30.52
47154;BME280;32907;41.412;2.164;2023-01-30T05:15:16;101443.03;;;14.92;30.65
47154;BME280;32907;41.412;2.164;2023-01-30T05:17:45;101522.53;;;15.43;30.92
47154;BME280;32907;41.412;2.164;2023-01-30T05:20:13;101517.13;;;15.43;30.72
47154;BME280;32907;41.412;2.164;2023-01-30T05:22:41;101473.09;;;15.19;30.68
47154;BME280;32907;41.412;2.164;2023-01-30T05:25:09;101437.97;;;14.96;30.84
47154;BME280;32907;41.412;2.164;2023-01-30T05:27:37;101472.72;;;15.16;30.79
47154;BME280;32907;41.412;2.164;2023-01-30T05:30:05;101499.88;;;15.32;30.61
47154;BME280;32907;41.412;2.164;2023-01-30T05:32:35;101496.22;;;15.27;30.65
47154;BME280;32907;41.412;2.164;2023-01-30T05:35:04;101454.31;;;15.01;31.22
47154;BME280;32907;41.412;2.164;2023-01-30T05:37:32;101475.53;;;15.21;31.08
47154;BME280;32907;41.412;2.164;2023-01-30T05:40:00;101437.63;;;15.04;30.50
47154;BME280;32907;41.412;2.164;2023-01-30T05:42:28;101509.97;;;15.49;30.61
47154;BME280;32907;41.412;2.164;2023-01-30T05:44:56;101423.75;;;14.89;30.60
47154;BME280;32907;41.412;2.164;2023-01-30T05:47:24;101440.66;;;15.07;30.25
47154;BME280;32907;41.412;2.164;2023-01-30T05:49:52;101495.75;;;15.42;30.37
47154;BME280;32907;41.412;2.164;2023-01-30T05:52:20;101501.50;;;15.45;31.27
47154;BME280;32907;41.412;2.164;2023-01-30T05:54:48;101478.72;;;15.29;31.67
47154;BME280;32907;41.412;2.164;2023-01-30T05:57:17;101389.38;;;14.72;31.56
47154;BME280;32907;41.412;2.164;2023-01-30T05:59:45;101459.81;;;15.06;31.18
47154;BME280;32907;41.412;2.164;2023-01-30T06:02:13;101452.16;;;15.15;31.01
47154;BME280;32907;41.412;2.164;2023-01-30T06:04:40;101513.16;;;15.34;30.89
47154;BME280;32907;41.412;2.164;2023-01-30T06:07:08;101444.31;;;14.90;30.84
47154;BME280;32907;41.412;2.164;2023-01-30T06:09:36;101440.78;;;14.89;31.67
47154;BME280;32907;41.412;2.164;2023-01-30T06:12:05;101501.63;;;15.27;31.35
47154;BME280;32907;41.412;2.164;2023-01-30T06:14:33;101518.31;;;15.35;32.10
47154;BME280;32907;41.412;2.164;2023-01-30T06:17:01;101417.06;;;14.79;32.17
47154;BME280;32907;41.412;2.164;2023-01-30T06:19:36;101484.22;;;15.23;32.59
47154;BME280;32907;41.412;2.164;2023-01-30T06:22:04;101437.72;;;14.97;32.24
47154;BME280;32907;41.412;2.164;2023-01-30T06:24:32;101526.63;;;15.46;32.50
47154;BME280;32907;41.412;2.164;2023-01-30T06:27:00;101526.41;;;15.35;35.25
47154;BME280;32907;41.412;2.164;2023-01-30T06:29:30;101479.06;;;15.21;35.39
47154;BME280;32907;41.412;2.164;2023-01-30T06:31:59;101538.78;;;15.66;34.36
47154;BME280;32907;41.412;2.164;2023-01-30T06:34:27;101519.72;;;15.61;34.47
47154;BME280;32907;41.412;2.164;2023-01-30T06:36:54;101511.50;;;15.56;34.39
47154;BME280;32907;41.412;2.164;2023-01-30T06:39:22;101512.53;;;15.55;34.12
47154;BME280;32907;41.412;2.164;2023-01-30T06:41:51;101556.50;;;15.74;33.76
47154;BME280;32907;41.412;2.164;2023-01-30T06:44:19;101428.44;;;15.05;33.39
47154;BME280;32907;41.412;2.164;2023-01-30T06:46:46;101564.38;;;15.76;32.83
47154;BME280;32907;41.412;2.164;2023-01-30T06:49:14;101554.50;;;15.70;33.08
47154;BME280;32907;41.412;2.164;2023-01-30T06:51:43;101558.50;;;15.79;32.94
47154;BME280;32907;41.412;2.164;2023-01-30T06:54:11;101511.84;;;15.48;32.67
47154;BME280;32907;41.412;2.164;2023-01-30T06:56:39;101562.25;;;15.78;32.49
47154;BME280;32907;41.412;2.164;2023-01-30T06:59:08;101510.09;;;15.42;32.43
47154;BME280;32907;41.412;2.164;2023-01-30T07:01:35;101549.47;;;15.61;32.10
47154;BME280;32907;41.412;2.164;2023-01-30T07:04:05;101499.63;;;15.22;32.51
47154;BME280;32907;41.412;2.164;2023-01-30T07:06:33;101528.88;;;15.37;32.58
47154;BME280;32907;41.412;2.164;2023-01-30T07:09:01;101569.19;;;15.50;32.52
47154;BME280;32907;41.412;2.164;2023-01-30T07:11:29;101562.25;;;15.43;32.27
47154;BME280;32907;41.412;2.164;2023-01-30T07:13:57;101594.16;;;15.64;32.05
47154;BME280;32907;41.412;2.164;2023-01-30T07:16:25;101544.28;;;15.36;31.58
47154;BME280;32907;41.412;2.164;2023-01-30T07:18:56;101602.34;;;15.69;31.53
47154;BME280;32907;41.412;2.164;2023-01-30T07:21:25;101519.25;;;15.18;31.54
47154;BME280;32907;41.412;2.164;2023-01-30T07:23:54;101535.81;;;15.21;31.80
47154;BME280;32907;41.412;2.164;2023-01-30T07:26:22;101621.53;;;15.68;31.38
47154;BME280;32907;41.412;2.164;2023-01-30T07:28:51;101591.88;;;15.49;31.40
47154;BME280;32907;41.412;2.164;2023-01-30T07:31:19;101571.28;;;15.36;31.31
47154;BME280;32907;41.412;2.164;2023-01-30T07:33:47;101519.13;;;15.01;32.01
47154;BME280;32907;41.412;2.164;2023-01-30T07:36:15;101635.72;;;15.63;31.58
47154;BME280;32907;41.412;2.164;2023-01-30T07:38:43;101612.78;;;15.42;31.75
47154;BME280;32907;41.412;2.164;2023-01-30T07:41:11;101639.94;;;15.59;31.71
47154;BME280;32907;41.412;2.164;2023-01-30T07:43:39;101628.78;;;15.44;32.09
47154;BME280;32907;41.412;2.164;2023-01-30T07:46:07;101641.13;;;15.63;31.43
47154;BME280;32907;41.412;2.164;2023-01-30T07:48:35;101676.22;;;15.81;31.59
47154;BME280;32907;41.412;2.164;2023-01-30T07:51:03;101678.66;;;15.83;31.91
47154;BME280;32907;41.412;2.164;2023-01-30T07:53:31;101673.84;;;15.73;32.54
47154;BME280;32907;41.412;2.164;2023-01-30T07:56:05;101683.25;;;15.82;32.53
47154;BME280;32907;41.412;2.164;2023-01-30T07:58:33;101666.09;;;15.65;32.37
47154;BME280;32907;41.412;2.164;2023-01-30T08:01:01;101552.22;;;14.96;32.90
47154;BME280;32907;41.412;2.164;2023-01-30T08:03:29;101666.66;;;15.67;32.08
47154;BME280;32907;41.412;2.164;2023-01-30T08:05:57;101623.22;;;15.38;31.61
47154;BME280;32907;41.412;2.164;2023-01-30T08:08:26;101671.56;;;15.58;31.87
47154;BME280;32907;41.412;2.164;2023-01-30T08:10:54;101612.66;;;15.25;32.44
47154;BME280;32907;41.412;2.164;2023-01-30T08:13:21;101704.75;;;15.77;32.74
47154;BME280;32907;41.412;2.164;2023-01-30T08:15:50;101696.66;;;15.77;33.11
47154;BME280;32907;41.412;2.164;2023-01-30T08:18:19;101673.03;;;15.73;32.54
47154;BME280;32907;41.412;2.164;2023-01-30T08:20:47;101670.66;;;15.76;32.87
47154;BME280;32907;41.412;2.164;2023-01-30T08:23:15;101718.91;;;16.14;32.59
47154;BME280;32907;41.412;2.164;2023-01-30T08:25:43;101706.53;;;16.07;32.56
47154;BME280;32907;41.412;2.164;2023-01-30T08:28:10;101630.22;;;15.70;31.97
47154;BME280;32907;41.412;2.164;2023-01-30T08:30:40;101688.31;;;16.02;33.13
47154;BME280;32907;41.412;2.164;2023-01-30T08:33:08;101688.31;;;16.02;33.46
47154;BME280;32907;41.412;2.164;2023-01-30T08:35:40;101669.03;;;15.99;33.48
47154;BME280;32907;41.412;2.164;2023-01-30T08:38:08;101726.75;;;16.39;33.49
47154;BME280;32907;41.412;2.164;2023-01-30T08:40:38;101711.09;;;16.41;32.73
47154;BME280;32907;41.412;2.164;2023-01-30T08:43:07;101719.78;;;16.43;32.50
47154;BME280;32907;41.412;2.164;2023-01-30T08:45:35;101710.16;;;16.47;32.82
47154;BME280;32907;41.412;2.164;2023-01-30T08:48:05;101697.56;;;16.41;33.16
47154;BME280;32907;41.412;2.164;2023-01-30T08:50:33;101712.25;;;16.57;33.23
47154;BME280;32907;41.412;2.164;2023-01-30T08:53:06;101701.28;;;16.52;32.66
47154;BME280;32907;41.412;2.164;2023-01-30T08:55:35;101630.31;;;16.10;32.89
47154;BME280;32907;41.412;2.164;2023-01-30T08:58:03;101706.69;;;16.64;32.98
47154;BME280;32907;41.412;2.164;2023-01-30T09:00:31;101713.25;;;16.68;32.95
47154;BME280;32907;41.412;2.164;2023-01-30T09:02:59;101692.94;;;16.54;33.10
47154;BME280;32907;41.412;2.164;2023-01-30T09:05:28;101680.38;;;16.47;32.81
47154;BME280;32907;41.412;2.164;2023-01-30T09:07:56;101730.09;;;16.82;32.87
47154;BME280;32907;41.412;2.164;2023-01-30T09:10:24;101734.81;;;16.86;32.85
47154;BME280;32907;41.412;2.164;2023-01-30T09:12:52;101725.03;;;16.85;32.18
47154;BME280;32907;41.412;2.164;2023-01-30T09:15:21;101667.53;;;16.55;32.18
47154;BME280;32907;41.412;2.164;2023-01-30T09:17:51;101654.94;;;16.48;31.96
47154;BME280;32907;41.412;2.164;2023-01-30T09:20:19;101723.88;;;16.81;30.97
47154;BME280;32907;41.412;2.164;2023-01-30T09:22:47;101650.03;;;16.34;31.06
47154;BME280;32907;41.412;2.164;2023-01-30T09:25:16;101618.78;;;16.03;30.76
47154;BME280;32907;41.412;2.164;2023-01-30T09:27:47;101726.22;;;16.66;30.65
47154;BME280;32907;41.412;2.164;2023-01-30T09:30:16;101696.25;;;16.56;31.11
47154;BME280;32907;41.412;2.164;2023-01-30T09:32:44;101708.59;;;16.51;31.27
47154;BME280;32907;41.412;2.164;2023-01-30T09:35:13;101588.94;;;15.86;31.37
47154;BME280;32907;41.412;2.164;2023-01-30T09:37:52;101701.41;;;16.57;31.16
47154;BME280;32907;41.412;2.164;2023-01-30T09:40:23;101672.72;;;16.44;31.51
47154;BME280;32907;41.412;2.164;2023-01-30T09:43:22;101698.00;;;16.62;31.68
47154;BME280;32907;41.412;2.164;2023-01-30T09:46:21;101637.06;;;16.36;33.07
47154;BME280;32907;41.412;2.164;2023-01-30T09:49:24;101688.47;;;16.71;31.75
47154;BME280;32907;41.412;2.164;2023-01-30T09:52:07;101684.69;;;16.72;31.40
47154;BME280;32907;41.412;2.164;2023-01-30T09:54:41;101689.38;;;16.65;30.74
47154;BME280;32907;41.412;2.164;2023-01-30T09:57:22;101667.97;;;16.51;30.80
47154;BME280;32907;41.412;2.164;2023-01-30T10:00:16;101696.94;;;16.63;30.80
47154;BME280;32907;41.412;2.164;2023-01-30T10:05:33;101680.38;;;16.47;29.92
47154;BME280;32907;41.412;2.164;2023-01-30T10:11:08;101693.84;;;16.59;30.97
47154;BME280;32907;41.412;2.164;2023-01-30T10:13:53;101681.88;;;16.55;30.36
47154;BME280;32907;41.412;2.164;2023-01-30T10:19:20;101690.63;;;16.45;30.44
47154;BME280;32907;41.412;2.164;2023-01-30T10:22:18;101647.34;;;16.22;30.97
47154;BME280;32907;41.412;2.164;2023-01-30T10:27:29;101696.00;;;16.57;31.14
47154;BME280;32907;41.412;2.164;2023-01-30T10:30:02;101689.56;;;16.46;31.54
47154;BME280;32907;41.412;2.164;2023-01-30T10:35:26;101678.47;;;16.48;30.42
47154;BME280;32907;41.412;2.164;2023-01-30T10:38:28;101700.84;;;16.55;30.35
47154;BME280;32907;41.412;2.164;2023-01-30T10:43:34;101595.97;;;15.99;30.24
47154;BME280;32907;41.412;2.164;2023-01-30T10:46:09;101670.34;;;16.48;30.14
47154;BME280;32907;41.412;2.164;2023-01-30T10:49:01;101643.09;;;16.26;29.82
47154;BME280;32907;41.412;2.164;2023-01-30T10:51:43;101667.31;;;16.44;29.65
47154;BME280;32907;41.412;2.164;2023-01-30T10:54:19;101670.84;;;16.45;30.01
47154;BME280;32907;41.412;2.164;2023-01-30T11:00:02;101618.16;;;16.24;29.97
47154;BME280;32907;41.412;2.164;2023-01-30T11:05:46;101650.69;;;16.53;30.17
47154;BME280;32907;41.412;2.164;2023-01-30T11:08:28;101646.56;;;16.50;30.50
47154;BME280;32907;41.412;2.164;2023-01-30T11:10:57;101628.00;;;16.42;30.17
47154;BME280;32907;41.412;2.164;2023-01-30T11:13:31;101638.56;;;16.55;30.07
47154;BME280;32907;41.412;2.164;2023-01-30T11:16:05;101621.63;;;16.48;30.62
47154;BME280;32907;41.412;2.164;2023-01-30T11:18:48;101604.69;;;16.41;30.42
47154;BME280;32907;41.412;2.164;2023-01-30T11:21:39;101568.88;;;16.22;30.24
47154;BME280;32907;41.412;2.164;2023-01-30T11:24:17;101594.69;;;16.41;30.28
47154;BME280;32907;41.412;2.164;2023-01-30T11:26:46;101552.78;;;16.15;30.06
47154;BME280;32907;41.412;2.164;2023-01-30T11:29:28;101618.84;;;16.60;29.91
47154;BME280;32907;41.412;2.164;2023-01-30T11:32:02;101576.22;;;16.38;30.32
47154;BME280;32907;41.412;2.164;2023-01-30T11:34:31;101556.03;;;16.29;30.27
47154;BME280;32907;41.412;2.164;2023-01-30T11:37:24;101550.50;;;16.24;30.66
47154;BME280;32907;41.412;2.164;2023-01-30T11:39:55;101592.78;;;16.54;30.25
47154;BME280;32907;41.412;2.164;2023-01-30T11:42:30;101608.50;;;16.68;30.80
47154;BME280;32907;41.412;2.164;2023-01-30T11:44:59;101548.41;;;16.43;30.84
47154;BME280;32907;41.412;2.164;2023-01-30T11:47:57;101578.34;;;16.65;30.92
47154;BME280;32907;41.412;2.164;2023-01-30T11:50:46;101575.13;;;16.68;30.22
47154;BME280;32907;41.412;2.164;2023-01-30T11:56:04;101556.50;;;16.55;30.40
47154;BME280;32907;41.412;2.164;2023-01-30T11:58:38;101511.16;;;16.33;30.00
47154;BME280;32907;41.412;2.164;2023-01-30T12:01:09;101497.78;;;16.27;30.72
47154;BME280;32907;41.412;2.164;2023-01-30T12:03:44;101515.72;;;16.44;31.27
47154;BME280;32907;41.412;2.164;2023-01-30T12:06:29;101472.94;;;16.30;31.25
47154;BME280;32907;41.412;2.164;2023-01-30T12:08:58;101493.97;;;16.56;31.60
47154;BME280;32907;41.412;2.164;2023-01-30T12:11:31;101536.56;;;16.89;31.07
47154;BME280;32907;41.412;2.164;2023-01-30T12:20:10;101388.00;;;16.02;28.87
47154;BME280;32907;41.412;2.164;2023-01-30T12:23:10;101454.03;;;16.46;28.82
47154;BME280;32907;41.412;2.164;2023-01-30T12:26:00;101446.88;;;16.40;28.46
47154;BME280;32907;41.412;2.164;2023-01-30T12:31:26;101465.59;;;16.59;29.19
47154;BME280;32907;41.412;2.164;2023-01-30T12:33:58;101427.09;;;16.40;29.19
47154;BME280;32907;41.412;2.164;2023-01-30T12:39:22;101481.16;;;16.80;29.63
47154;BME280;32907;41.412;2.164;2023-01-30T12:45:22;101468.25;;;16.87;29.47
47154;BME280;32907;41.412;2.164;2023-01-30T12:53:19;101463.75;;;16.93;29.29
47154;BME280;32907;41.412;2.164;2023-01-30T12:58:45;101434.44;;;16.73;29.08
47154;BME280;32907;41.412;2.164;2023-01-30T13:01:27;101448.88;;;16.95;29.77
47154;BME280;32907;41.412;2.164;2023-01-30T13:06:54;101441.31;;;16.97;29.06
47154;BME280;32907;41.412;2.164;2023-01-30T13:09:35;101441.31;;;16.97;28.70
47154;BME280;32907;41.412;2.164;2023-01-30T13:12:12;101445.91;;;16.97;28.55
47154;BME280;32907;41.412;2.164;2023-01-30T13:17:37;101436.72;;;16.98;28.35
47154;BME280;32907;41.412;2.164;2023-01-30T13:27:57;101353.84;;;16.46;28.95
47154;BME280;32907;41.412;2.164;2023-01-30T13:30:29;101385.69;;;16.73;28.68
47154;BME280;32907;41.412;2.164;2023-01-30T13:33:04;101430.69;;;17.13;29.09
47154;BME280;32907;41.412;2.164;2023-01-30T13:36:02;101415.00;;;17.15;28.78
47154;BME280;32907;41.412;2.164;2023-01-30T13:38:29;101400.25;;;17.05;30.50
47154;BME280;32907;41.412;2.164;2023-01-30T13:40:59;101386.22;;;17.09;30.30
47154;BME280;32907;41.412;2.164;2023-01-30T13:43:29;101417.22;;;17.40;30.44
47154;BME280;32907;41.412;2.164;2023-01-30T13:46:02;101357.22;;;17.09;30.68
47154;BME280;32907;41.412;2.164;2023-01-30T13:51:31;101348.66;;;17.17;29.47
47154;BME280;32907;41.412;2.164;2023-01-30T14:08:20;101395.88;;;17.65;30.05
47154;BME280;32907;41.412;2.164;2023-01-30T14:10:50;101398.31;;;17.67;29.92
47154;BME280;32907;41.412;2.164;2023-01-30T14:13:18;101290.94;;;16.95;29.71
47154;BME280;32907;41.412;2.164;2023-01-30T14:16:01;101417.56;;;17.65;29.41
47154;BME280;32907;41.412;2.164;2023-01-30T14:18:35;101401.53;;;17.63;29.67
47154;BME280;32907;41.412;2.164;2023-01-30T14:21:17;101392.81;;;17.61;29.36
47154;BME280;32907;41.412;2.164;2023-01-30T14:23:57;101394.97;;;17.59;28.68
47154;BME280;32907;41.412;2.164;2023-01-30T14:45:58;101376.06;;;17.43;28.68
47154;BME280;32907;41.412;2.164;2023-01-30T14:48:55;101377.72;;;17.44;28.61
47154;BME280;32907;41.412;2.164;2023-01-30T14:51:41;101387.84;;;17.53;29.10
47154;BME280;32907;41.412;2.164;2023-01-30T14:56:55;101371.50;;;17.48;28.81
47154;BME280;32907;41.412;2.164;2023-01-30T15:16:12;101376.38;;;17.46;28.19
47154;BME280;32907;41.412;2.164;2023-01-30T15:21:39;101398.50;;;17.38;28.44
47154;BME280;32907;41.412;2.164;2023-01-30T15:30:36;101397.38;;;17.34;27.40
47154;BME280;32907;41.412;2.164;2023-01-30T15:33:20;101405.38;;;17.46;28.66
47154;BME280;32907;41.412;2.164;2023-01-30T15:35:58;101352.38;;;17.11;28.79
47154;BME280;32907;41.412;2.164;2023-01-30T15:38:32;101387.22;;;17.46;30.29
47154;BME280;32907;41.412;2.164;2023-01-30T15:41:02;101396.88;;;17.59;30.59
47154;BME280;32907;41.412;2.164;2023-01-30T15:43:40;101415.28;;;17.79;29.82
47154;BME280;32907;41.412;2.164;2023-01-30T15:46:20;101424.06;;;17.86;29.52
47154;BME280;32907;41.412;2.164;2023-01-30T15:49:10;101422.97;;;17.87;29.56
47154;BME280;32907;41.412;2.164;2023-01-30T15:51:44;101421.97;;;17.93;29.80
47154;BME280;32907;41.412;2.164;2023-01-30T15:54:17;101438.50;;;17.92;29.34
47154;BME280;32907;41.412;2.164;2023-01-30T15:56:47;101370.25;;;17.56;29.88